Time;durP1;ratioP1;P1;durP2;ratioP2;P2;SDS_P1;SDS_P2;PMS_P1;PMS_P2;Temp;Humidity;BMP_temperature;BMP_pressure;BME280_temperature;BME280_humidity;BME280_pressure;Samples;Min_cycle;Max_cycle;Signal;HPM_P1;HPM_P2
2022/03/30 00:01:26;;;;;;;25.88;9.27;;;;;;;5.79;70.10;99561.00;5027181;28;20046;-43
2022/03/30 00:03:53;;;;;;;30.55;9.27;;;;;;;5.82;70.35;99557.59;5024447;28;20048;-46
2022/03/30 00:06:20;;;;;;;33.13;10.10;;;;;;;5.83;70.34;99559.28;5022144;28;20111;-42
2022/03/30 00:08:46;;;;;;;29.98;9.85;;;;;;;5.87;69.95;99555.91;5026604;28;20053;-42
2022/03/30 00:11:13;;;;;;;29.80;9.90;;;;;;;5.90;69.23;99566.22;5023521;28;20719;-44
2022/03/30 00:13:40;;;;;;;29.83;9.57;;;;;;;5.92;70.21;99558.53;5025562;28;20056;-45
2022/03/30 00:16:09;;;;;;;29.95;9.20;;;;;;;5.94;69.74;99555.97;5026775;28;20452;-44
2022/03/30 00:18:36;;;;;;;30.35;8.93;;;;;;;5.90;70.56;99552.50;5023406;28;20132;-44
2022/03/30 00:21:04;;;;;;;30.38;9.77;;;;;;;5.91;69.94;99552.50;5024907;28;20049;-45
2022/03/30 00:23:30;;;;;;;25.50;9.35;;;;;;;5.92;69.58;99554.22;5022062;28;20092;-41
2022/03/30 00:25:57;;;;;;;31.92;11.10;;;;;;;5.94;70.22;99553.41;5018549;28;20049;-44
2022/03/30 00:28:27;;;;;;;28.05;9.55;;;;;;;5.93;69.96;99549.94;5021116;28;20049;-40
2022/03/30 00:30:55;;;;;;;28.48;10.13;;;;;;;5.95;70.23;99563.69;5021922;28;20119;-42
2022/03/30 00:33:22;;;;;;;29.02;8.95;;;;;;;5.94;70.21;99553.41;5021105;28;20124;-41
2022/03/30 00:35:49;;;;;;;32.33;10.13;;;;;;;5.94;69.21;99545.69;5025261;28;20045;-44
2022/03/30 00:38:16;;;;;;;25.73;8.45;;;;;;;5.94;69.69;99548.25;5025641;28;20176;-43
2022/03/30 00:40:43;;;;;;;28.42;9.93;;;;;;;5.92;69.57;99554.22;5023693;28;20046;-39
2022/03/30 00:43:09;;;;;;;22.38;8.75;;;;;;;5.94;69.32;99550.81;5031846;28;20107;-43
2022/03/30 00:45:40;;;;;;;29.45;9.50;;;;;;;5.91;69.02;99547.38;5032136;28;20057;-41
2022/03/30 00:48:07;;;;;;;26.80;9.45;;;;;;;5.92;68.89;99543.94;5030623;28;20064;-41
2022/03/30 00:50:34;;;;;;;30.48;9.77;;;;;;;5.91;69.92;99542.22;5034408;28;20750;-46
2022/03/30 00:53:01;;;;;;;30.15;8.68;;;;;;;5.92;69.89;99537.97;5020794;28;20053;-41
2022/03/30 00:55:28;;;;;;;28.92;8.75;;;;;;;5.90;69.54;99535.38;5032955;28;20056;-42
2022/03/30 00:57:57;;;;;;;28.73;9.32;;;;;;;5.89;69.10;99533.66;5023577;28;20123;-41
2022/03/30 01:00:25;;;;;;;25.35;8.70;;;;;;;5.90;70.04;99530.22;5026493;28;20046;-41
2022/03/30 01:02:52;;;;;;;26.95;8.68;;;;;;;5.91;68.98;99531.94;5022684;28;20051;-44
2022/03/30 01:05:19;;;;;;;23.77;8.00;;;;;;;5.89;69.70;99532.78;5028579;28;20052;-41
2022/03/30 01:07:46;;;;;;;23.45;8.98;;;;;;;5.88;69.42;99516.50;5024272;28;20091;-43
2022/03/30 01:10:15;;;;;;;31.73;10.23;;;;;;;5.89;69.10;99531.09;5029936;28;20111;-41
2022/03/30 01:12:43;;;;;;;29.67;9.15;;;;;;;5.87;68.87;99525.06;5030585;28;20091;-44
2022/03/30 01:15:12;;;;;;;28.13;9.40;;;;;;;5.87;69.11;99513.91;5031328;28;20049;-42
2022/03/30 01:17:40;;;;;;;25.17;8.25;;;;;;;5.86;69.32;99517.34;5027733;28;20128;-41
2022/03/30 01:20:08;;;;;;;28.58;9.15;;;;;;;5.86;69.66;99518.19;5023408;28;20041;-40
2022/03/30 01:22:35;;;;;;;25.05;9.32;;;;;;;5.88;69.24;99516.50;5027120;28;20053;-43
2022/03/30 01:25:03;;;;;;;27.80;9.55;;;;;;;5.90;69.09;99514.81;5030867;28;20046;-43
2022/03/30 01:27:30;;;;;;;27.60;8.30;;;;;;;5.87;68.76;99514.78;5023416;28;20050;-44
2022/03/30 01:32:43;;;;;;;29.73;10.00;;;;;;;5.85;69.54;99505.34;5026940;28;20045;-42
2022/03/30 01:35:11;;;;;;;25.25;9.57;;;;;;;5.85;69.25;99511.34;5021294;28;20103;-43
2022/03/30 01:37:38;;;;;;;30.08;9.40;;;;;;;5.87;68.30;99514.78;5024101;28;20140;-42
2022/03/30 01:40:06;;;;;;;27.60;9.73;;;;;;;5.89;68.79;99507.94;5029114;28;20049;-44
2022/03/30 01:42:33;;;;;;;29.30;8.85;;;;;;;5.89;69.02;99497.66;5026943;28;20050;-47
2022/03/30 01:45:00;;;;;;;30.70;9.40;;;;;;;5.91;68.26;99498.53;5027293;28;20125;-40
2022/03/30 01:47:27;;;;;;;32.55;9.98;;;;;;;5.90;68.20;99499.38;5025963;28;20044;-44
2022/03/30 01:49:53;;;;;;;28.48;10.18;;;;;;;5.87;68.80;99503.63;5022409;28;20472;-41
2022/03/30 01:52:37;;;;;;;30.00;9.63;;;;;;;5.81;69.20;99496.72;5025063;28;20064;-44
2022/03/30 01:55:04;;;;;;;27.80;8.70;;;;;;;5.82;68.55;99495.91;5025804;28;20045;-41
2022/03/30 01:57:31;;;;;;;27.00;9.68;;;;;;;5.83;68.99;99497.59;5030648;28;20052;-42
2022/03/30 02:00:18;;;;;;;28.10;9.30;;;;;;;5.81;69.04;99491.59;5026005;28;20052;-46
2022/03/30 02:02:46;;;;;;;30.52;10.57;;;;;;;5.81;69.44;99491.59;5024923;28;20058;-43
2022/03/30 02:05:13;;;;;;;28.98;9.15;;;;;;;5.80;69.10;99482.16;5026394;28;20042;-45
2022/03/30 02:07:39;;;;;;;31.92;9.80;;;;;;;5.79;68.98;99486.47;5026429;28;20072;-42
2022/03/30 02:10:08;;;;;;;30.35;9.45;;;;;;;5.79;69.14;99477.88;5024350;28;20135;-45
2022/03/30 02:12:35;;;;;;;30.40;9.90;;;;;;;5.78;68.30;99476.16;5005720;28;20049;-42
2022/03/30 02:15:02;;;;;;;31.15;10.13;;;;;;;5.77;68.05;99471.84;5005320;28;20058;-44
2022/03/30 02:17:29;;;;;;;29.60;9.90;;;;;;;5.75;68.01;99473.56;5005883;28;20413;-42
2022/03/30 02:19:56;;;;;;;28.70;10.25;;;;;;;5.72;68.95;99473.53;5005083;28;20115;-44
2022/03/30 02:22:23;;;;;;;30.65;9.55;;;;;;;5.72;67.79;99473.53;5008973;28;20474;-42
2022/03/30 02:24:50;;;;;;;35.47;9.65;;;;;;;5.68;68.76;99471.78;5004549;28;20056;-42
2022/03/30 02:27:19;;;;;;;25.95;9.13;;;;;;;5.63;68.96;99470.06;5023365;28;20084;-43
2022/03/30 02:29:48;;;;;;;28.25;10.10;;;;;;;5.61;68.29;99466.59;5022157;28;20076;-43
2022/03/30 02:32:17;;;;;;;28.60;10.65;;;;;;;5.62;68.31;99473.47;5023767;28;20073;-42
2022/03/30 02:34:44;;;;;;;27.92;10.20;;;;;;;5.61;69.00;99456.31;5027112;28;20048;-42
2022/03/30 02:37:12;;;;;;;28.73;9.90;;;;;;;5.59;69.33;99452.88;5024750;28;20810;-42
2022/03/30 02:39:39;;;;;;;27.30;8.52;;;;;;;5.57;68.87;99449.44;5024496;28;20075;-42
2022/03/30 02:42:07;;;;;;;31.15;10.48;;;;;;;5.57;68.76;99449.44;5029607;28;20509;-43
2022/03/30 02:44:34;;;;;;;33.42;10.23;;;;;;;5.51;68.52;99450.25;5025019;28;20057;-44
2022/03/30 02:47:01;;;;;;;33.55;10.10;;;;;;;5.51;68.93;99454.53;5027125;28;20053;-44
2022/03/30 02:49:28;;;;;;;29.73;10.63;;;;;;;5.50;69.15;99442.53;5021438;28;20056;-45
2022/03/30 02:51:54;;;;;;;27.95;9.45;;;;;;;5.49;68.57;99443.38;5009522;28;20046;-45
2022/03/30 02:54:21;;;;;;;34.85;10.80;;;;;;;5.48;68.79;99439.97;5022695;28;20096;-43
2022/03/30 02:56:48;;;;;;;36.50;11.20;;;;;;;5.49;68.86;99440.81;5028414;28;20049;-43
2022/03/30 02:59:15;;;;;;;36.38;11.45;;;;;;;5.48;68.39;99439.09;5026723;28;20061;-43
2022/03/30 03:01:41;;;;;;;31.67;10.77;;;;;;;5.47;69.31;99435.66;5023351;28;20049;-43
2022/03/30 03:04:08;;;;;;;33.90;11.02;;;;;;;5.51;69.05;99439.13;5020725;28;20041;-45
2022/03/30 03:06:35;;;;;;;33.15;10.80;;;;;;;5.47;68.74;99432.25;5029649;28;20073;-41
2022/03/30 03:09:01;;;;;;;38.10;13.18;;;;;;;5.49;68.38;99433.97;5023507;28;20053;-46
2022/03/30 03:11:28;;;;;;;41.20;12.07;;;;;;;5.49;68.92;99431.41;5023188;28;20095;-43
2022/03/30 03:13:55;;;;;;;46.47;14.07;;;;;;;5.50;68.56;99427.09;5021774;28;20512;-42
2022/03/30 03:16:22;;;;;;;44.13;12.55;;;;;;;5.47;69.52;99421.97;5031857;28;20213;-43
2022/03/30 03:18:48;;;;;;;38.63;12.63;;;;;;;5.49;68.50;99415.13;5026475;28;20192;-42
2022/03/30 03:21:15;;;;;;;38.65;12.32;;;;;;;5.48;69.29;99414.28;5026114;28;20472;-44
2022/03/30 03:23:42;;;;;;;44.08;11.60;;;;;;;5.48;69.32;99413.41;5024468;28;20385;-44
2022/03/30 03:26:08;;;;;;;39.28;12.27;;;;;;;5.49;68.52;99412.56;5026063;28;20064;-44
2022/03/30 03:28:35;;;;;;;46.53;14.10;;;;;;;5.49;69.21;99405.72;5020084;28;20049;-44
2022/03/30 03:31:02;;;;;;;42.42;13.07;;;;;;;5.51;69.17;99400.59;5023338;28;20650;-42
2022/03/30 03:33:29;;;;;;;46.20;14.45;;;;;;;5.51;69.27;99396.31;5020009;28;20523;-46
2022/03/30 03:35:55;;;;;;;44.90;12.85;;;;;;;5.52;69.36;99394.59;5023449;28;20514;-41
2022/03/30 03:38:22;;;;;;;48.38;14.75;;;;;;;5.53;68.56;99401.44;5028821;28;20049;-45
2022/03/30 03:40:48;;;;;;;50.13;12.68;;;;;;;5.52;69.16;99389.47;5026062;28;20074;-42
2022/03/30 03:43:15;;;;;;;45.67;13.98;;;;;;;5.50;69.49;99386.00;5022428;28;24746;-42
2022/03/30 03:45:41;;;;;;;38.28;12.70;;;;;;;5.47;69.39;99380.88;5021879;28;20097;-42
2022/03/30 03:48:09;;;;;;;44.72;13.73;;;;;;;5.48;69.16;99377.44;5015578;28;20709;-41
2022/03/30 03:50:36;;;;;;;45.22;12.82;;;;;;;5.49;68.66;99374.03;5024370;28;20045;-42
2022/03/30 03:53:02;;;;;;;44.30;12.95;;;;;;;5.50;69.13;99379.19;5024235;28;20085;-45
2022/03/30 03:55:33;;;;;;;42.65;12.85;;;;;;;5.51;69.12;99372.34;5025640;28;20060;-47
2022/03/30 03:58:00;;;;;;;37.05;11.10;;;;;;;5.48;68.58;99368.03;5023130;28;20053;-44
2022/03/30 04:00:27;;;;;;;43.63;12.65;;;;;;;5.49;69.43;99363.75;5025930;28;20057;-43
2022/03/30 04:02:54;;;;;;;42.08;13.80;;;;;;;5.50;68.99;99365.47;5025648;28;20045;-43
2022/03/30 04:05:21;;;;;;;47.85;12.35;;;;;;;5.48;68.71;99368.03;5025667;28;20076;-45
2022/03/30 04:07:47;;;;;;;42.92;13.85;;;;;;;5.49;68.94;99364.63;5026356;28;20041;-44
2022/03/30 04:10:15;;;;;;;45.95;13.57;;;;;;;5.49;68.78;99368.88;5021176;28;20501;-42
2022/03/30 04:12:41;;;;;;;45.58;14.05;;;;;;;5.51;69.60;99372.34;5016905;28;20120;-45
2022/03/30 04:15:09;;;;;;;40.78;13.43;;;;;;;5.53;68.63;99371.50;5023662;28;20550;-43
2022/03/30 04:17:42;;;;;;;44.72;13.73;;;;;;;5.54;68.80;99362.06;5034401;28;20106;-42
2022/03/30 04:20:09;;;;;;;42.38;12.50;;;;;;;5.58;69.52;99374.09;5025571;28;20703;-42
2022/03/30 04:22:36;;;;;;;41.33;12.65;;;;;;;5.59;68.68;99367.25;5029648;28;20049;-42
2022/03/30 04:25:04;;;;;;;37.08;10.60;;;;;;;5.58;68.64;99368.97;5024584;28;20828;-43
2022/03/30 04:27:31;;;;;;;39.85;12.27;;;;;;;5.59;68.37;99370.69;5027817;28;20508;-47
2022/03/30 04:29:57;;;;;;;35.55;12.00;;;;;;;5.60;69.39;99367.25;5031179;28;20045;-43
2022/03/30 04:32:24;;;;;;;37.38;10.13;;;;;;;5.60;69.07;99367.25;5029777;28;20118;-43
2022/03/30 04:34:51;;;;;;;36.00;11.63;;;;;;;5.63;69.30;99372.41;5025972;28;20049;-42
2022/03/30 04:37:17;;;;;;;36.05;10.75;;;;;;;5.68;69.36;99374.16;5028082;28;20071;-48
2022/03/30 04:39:44;;;;;;;37.53;12.00;;;;;;;5.69;69.07;99365.59;5027117;28;20037;-42
2022/03/30 04:42:10;;;;;;;37.47;12.10;;;;;;;5.71;69.33;99363.91;5030239;28;20045;-42
2022/03/30 04:44:37;;;;;;;33.67;10.77;;;;;;;5.74;69.20;99356.22;5028318;28;20049;-41
2022/03/30 04:47:04;;;;;;;37.22;10.75;;;;;;;5.74;68.21;99363.94;5016830;28;20068;-43
2022/03/30 04:49:30;;;;;;;39.15;11.23;;;;;;;5.74;69.53;99362.19;5026630;28;20041;-41
2022/03/30 04:52:14;;;;;;;38.88;10.88;;;;;;;5.74;69.24;99362.19;5024131;28;20080;-42
2022/03/30 04:54:41;;;;;;;33.35;11.25;;;;;;;5.74;68.91;99358.78;5027411;28;20041;-42
2022/03/30 04:57:07;;;;;;;34.45;11.48;;;;;;;5.75;68.96;99361.34;5028239;28;20088;-41
2022/03/30 04:59:34;;;;;;;37.80;11.48;;;;;;;5.77;68.66;99363.91;5027274;28;20049;-44
2022/03/30 05:02:01;;;;;;;36.78;10.85;;;;;;;5.74;68.89;99353.66;5027012;28;20746;-42
2022/03/30 05:04:29;;;;;;;36.83;11.55;;;;;;;5.72;69.48;99365.63;5027067;28;20059;-43
2022/03/30 05:06:56;;;;;;;40.85;12.10;;;;;;;5.72;69.37;99366.47;5027519;28;20099;-42
2022/03/30 05:09:23;;;;;;;41.08;13.15;;;;;;;5.73;68.90;99363.06;5023718;28;20045;-43
2022/03/30 05:11:50;;;;;;;42.03;12.45;;;;;;;5.72;68.48;99360.47;5029258;28;20038;-44
2022/03/30 05:14:17;;;;;;;42.15;11.90;;;;;;;5.72;69.67;99360.47;5023672;28;20049;-42
2022/03/30 05:16:44;;;;;;;39.72;12.45;;;;;;;5.70;68.68;99357.88;5027036;28;20131;-43
2022/03/30 05:19:11;;;;;;;46.30;13.25;;;;;;;5.70;68.98;99357.03;5028435;28;20049;-42
2022/03/30 05:21:37;;;;;;;42.58;13.05;;;;;;;5.70;69.18;99362.16;5031470;28;20045;-43
2022/03/30 05:24:04;;;;;;;41.88;13.13;;;;;;;5.70;68.49;99364.72;5023251;28;20048;-45
2022/03/30 05:26:31;;;;;;;35.53;11.15;;;;;;;5.69;68.71;99357.88;5025446;28;20504;-42
2022/03/30 05:28:57;;;;;;;34.72;11.65;;;;;;;5.67;69.38;99363.00;5022155;28;20049;-42
2022/03/30 05:31:24;;;;;;;40.22;11.80;;;;;;;5.69;69.37;99355.31;5031171;28;20046;-43
2022/03/30 05:33:51;;;;;;;40.03;10.48;;;;;;;5.65;69.24;99350.16;5024835;28;20049;-42
2022/03/30 05:36:18;;;;;;;35.67;10.93;;;;;;;5.65;69.37;99350.16;5021412;28;20096;-43
2022/03/30 05:38:47;;;;;;;36.05;10.63;;;;;;;5.64;69.99;99358.72;5021384;28;20135;-42
2022/03/30 05:41:15;;;;;;;32.40;10.32;;;;;;;5.63;68.92;99361.28;5022662;28;20045;-43
2022/03/30 05:43:42;;;;;;;40.28;11.23;;;;;;;5.62;69.62;99350.16;5022859;28;20041;-42
2022/03/30 05:46:08;;;;;;;38.53;10.82;;;;;;;5.63;69.55;99351.00;5026885;28;20049;-42
2022/03/30 05:48:36;;;;;;;33.35;11.55;;;;;;;5.61;69.44;99348.41;5022944;28;20084;-43
2022/03/30 05:51:03;;;;;;;34.65;10.93;;;;;;;5.62;69.05;99349.28;5026965;28;20386;-43
2022/03/30 05:53:29;;;;;;;28.48;10.18;;;;;;;5.60;69.94;99335.56;5021108;28;20108;-41
2022/03/30 05:55:56;;;;;;;30.38;9.85;;;;;;;5.54;69.86;99333.81;5027873;28;20041;-42
2022/03/30 05:58:23;;;;;;;35.83;9.57;;;;;;;5.48;70.17;99337.22;5019079;28;20697;-47
2022/03/30 06:00:51;;;;;;;34.95;9.68;;;;;;;5.47;69.93;99334.63;5020667;28;20470;-42
2022/03/30 06:03:18;;;;;;;35.08;10.32;;;;;;;5.47;69.74;99326.94;5023114;28;20046;-41
2022/03/30 06:05:45;;;;;;;27.73;9.60;;;;;;;5.43;69.79;99330.34;5025362;28;20044;-42
2022/03/30 06:08:11;;;;;;;30.50;9.00;;;;;;;5.40;70.59;99329.44;5026132;28;20092;-41
2022/03/30 06:10:38;;;;;;;32.25;9.50;;;;;;;5.43;70.60;99322.63;5025409;28;20045;-45
2022/03/30 06:13:06;;;;;;;35.30;9.73;;;;;;;5.45;69.49;99332.06;5027767;28;20820;-44
2022/03/30 06:15:33;;;;;;;29.75;10.00;;;;;;;5.50;69.84;99330.38;5022479;28;20049;-45
2022/03/30 06:18:00;;;;;;;32.65;10.43;;;;;;;5.56;69.99;99339.81;5026052;28;20459;-43
2022/03/30 06:20:27;;;;;;;36.83;10.43;;;;;;;5.59;69.90;99339.84;5027170;28;20049;-43
2022/03/30 06:22:55;;;;;;;31.15;10.98;;;;;;;5.63;69.45;99341.59;5021167;28;20080;-43
2022/03/30 06:25:24;;;;;;;31.20;10.00;;;;;;;5.67;69.34;99342.44;5038290;28;20473;-40
2022/03/30 06:27:52;;;;;;;29.50;9.48;;;;;;;5.69;69.43;99350.16;5022641;28;20096;-44
2022/03/30 06:30:20;;;;;;;29.58;9.73;;;;;;;5.71;69.77;99340.78;5026447;28;20057;-45
2022/03/30 06:32:49;;;;;;;39.53;10.65;;;;;;;5.75;69.70;99343.34;5019514;28;20058;-44
2022/03/30 06:35:19;;;;;;;37.33;11.60;;;;;;;5.77;69.78;99338.22;5023146;28;20050;-44
2022/03/30 06:37:47;;;;;;;31.92;11.30;;;;;;;5.78;70.12;99350.25;5027797;28;20392;-42
2022/03/30 06:40:14;;;;;;;35.35;9.80;;;;;;;5.82;68.94;99351.09;5023755;28;20094;-42
2022/03/30 06:42:42;;;;;;;32.13;10.50;;;;;;;5.82;69.78;99346.84;5017762;28;20045;-43
2022/03/30 06:45:10;;;;;;;36.13;11.32;;;;;;;5.83;68.90;99343.41;5017036;28;20778;-44
2022/03/30 06:47:38;;;;;;;31.33;9.82;;;;;;;5.87;69.20;99350.28;5018940;28;20052;-43
2022/03/30 06:50:05;;;;;;;38.75;11.32;;;;;;;5.87;68.95;99345.13;5019964;28;20053;-45
2022/03/30 06:52:32;;;;;;;33.30;11.07;;;;;;;5.88;69.80;99352.00;5018754;28;20065;-43
2022/03/30 06:54:59;;;;;;;29.33;10.40;;;;;;;5.90;68.97;99350.31;5017338;28;20042;-44
2022/03/30 06:57:27;;;;;;;35.50;10.27;;;;;;;5.93;69.96;99349.44;5015746;28;20342;-44
2022/03/30 06:59:54;;;;;;;28.15;10.68;;;;;;;5.92;68.80;99347.75;5018348;28;20540;-41
2022/03/30 07:02:20;;;;;;;35.08;10.80;;;;;;;5.94;68.86;99350.31;5014361;28;20045;-42
2022/03/30 07:04:47;;;;;;;36.45;11.02;;;;;;;5.94;69.46;99358.03;5012753;28;20845;-45
2022/03/30 07:10:19;;;;;;;34.38;11.23;;;;;;;5.89;70.76;99345.16;5045901;28;20192;-42
2022/03/30 07:12:47;;;;;;;32.85;11.05;;;;;;;5.79;70.24;99341.66;5017280;28;20081;-42
2022/03/30 07:15:17;;;;;;;24.33;9.43;;;;;;;5.77;70.11;99343.38;5019960;28;20120;-45
2022/03/30 07:17:53;;;;;;;32.90;10.23;;;;;;;5.74;69.95;99345.94;5016118;28;20045;-42
2022/03/30 07:20:22;;;;;;;25.95;9.82;;;;;;;5.73;70.07;99341.63;5017715;28;20045;-42
2022/03/30 07:22:50;;;;;;;31.90;10.05;;;;;;;5.75;70.75;99338.22;5021448;28;20499;-42
2022/03/30 07:25:19;;;;;;;37.92;11.25;;;;;;;5.82;70.17;99339.13;5021065;28;20042;-43
2022/03/30 07:27:51;;;;;;;39.70;11.95;;;;;;;5.89;70.44;99333.16;5012715;28;20081;-42
2022/03/30 07:30:19;;;;;;;44.50;11.90;;;;;;;5.99;70.69;99343.47;5016609;28;20046;-43
2022/03/30 07:32:47;;;;;;;36.20;10.88;;;;;;;6.08;69.31;99333.25;5015791;28;20045;-43
2022/03/30 07:35:16;;;;;;;35.80;11.85;;;;;;;6.13;70.25;99329.00;5018179;28;20096;-42
2022/03/30 07:37:45;;;;;;;37.88;10.93;;;;;;;6.20;70.23;99339.31;5019172;28;20644;-44
2022/03/30 07:40:16;;;;;;;37.53;10.32;;;;;;;6.24;70.08;99335.88;5013981;28;20084;-45
2022/03/30 07:42:45;;;;;;;37.58;10.82;;;;;;;6.26;69.02;99339.34;5013927;28;20046;-45
2022/03/30 07:45:13;;;;;;;44.00;10.63;;;;;;;6.30;70.04;99335.91;5016546;28;20129;-42
2022/03/30 07:47:39;;;;;;;32.13;9.55;;;;;;;6.32;69.43;99331.66;5014959;28;20119;-43
2022/03/30 07:50:07;;;;;;;31.45;9.73;;;;;;;6.33;68.71;99333.38;5009876;28;20131;-45
2022/03/30 07:52:34;;;;;;;29.63;9.52;;;;;;;6.33;69.62;99327.34;5018128;28;20115;-45
2022/03/30 07:55:01;;;;;;;32.38;9.57;;;;;;;6.31;69.32;99329.91;5013820;28;20058;-42
2022/03/30 07:57:28;;;;;;;35.60;10.45;;;;;;;6.36;70.12;99330.81;5015633;28;20045;-43
2022/03/30 08:00:16;;;;;;;37.08;10.13;;;;;;;6.37;69.83;99332.53;5011504;28;20134;-41
2022/03/30 08:02:45;;;;;;;36.10;10.50;;;;;;;6.39;70.42;99337.66;5014160;28;20050;-45
2022/03/30 08:05:13;;;;;;;35.10;9.52;;;;;;;6.39;68.88;99338.50;5015079;28;20384;-48
2022/03/30 08:07:43;;;;;;;33.78;9.80;;;;;;;6.41;69.66;99338.50;5017862;28;20092;-44
2022/03/30 08:10:10;;;;;;;32.05;9.43;;;;;;;6.43;69.84;99344.53;5017044;28;20041;-47
2022/03/30 08:12:39;;;;;;;30.42;9.63;;;;;;;6.45;68.57;99341.97;5015384;28;20057;-47
2022/03/30 08:15:12;;;;;;;31.45;11.02;;;;;;;6.45;68.35;99347.13;5012352;28;20037;-43
2022/03/30 08:17:39;;;;;;;38.03;12.30;;;;;;;6.47;69.32;99341.13;5017398;28;20045;-46
2022/03/30 08:20:06;;;;;;;39.45;11.18;;;;;;;6.48;68.66;99342.81;5016018;28;20041;-43
2022/03/30 08:22:34;;;;;;;35.42;10.57;;;;;;;6.50;69.34;99340.25;5014886;28;20053;-44
2022/03/30 08:25:07;;;;;;;39.08;11.43;;;;;;;6.53;68.68;99335.13;5015455;28;20085;-42
2022/03/30 08:27:35;;;;;;;35.08;10.45;;;;;;;6.56;68.85;99335.97;5014911;28;20086;-46
2022/03/30 08:30:05;;;;;;;35.58;10.15;;;;;;;6.58;69.39;99336.00;5018431;28;20057;-44
2022/03/30 08:32:32;;;;;;;33.13;10.38;;;;;;;6.60;69.05;99329.16;5013824;28;20053;-44
2022/03/30 08:35:03;;;;;;;40.22;10.55;;;;;;;6.63;68.07;99330.84;5014142;28;20517;-44
2022/03/30 08:37:30;;;;;;;35.97;10.32;;;;;;;6.65;68.10;99319.72;5011176;28;20128;-44
2022/03/30 08:39:56;;;;;;;35.97;10.38;;;;;;;6.71;69.59;99328.28;5015695;28;20053;-43
2022/03/30 08:42:23;;;;;;;34.75;11.02;;;;;;;6.77;68.19;99323.16;5016180;28;20057;-45
2022/03/30 08:44:50;;;;;;;34.33;9.85;;;;;;;6.82;69.44;99324.88;5015473;28;20038;-44
2022/03/30 08:47:17;;;;;;;35.45;11.15;;;;;;;6.86;68.63;99323.16;5020978;28;20109;-44
2022/03/30 08:49:47;;;;;;;35.63;10.15;;;;;;;6.90;68.65;99319.75;5014186;28;20050;-46
2022/03/30 08:52:15;;;;;;;31.55;9.82;;;;;;;6.94;68.12;99320.59;5013263;28;20053;-42
2022/03/30 08:54:43;;;;;;;38.95;10.30;;;;;;;6.96;69.35;99312.88;5016751;28;20033;-42
2022/03/30 08:57:11;;;;;;;37.83;10.73;;;;;;;7.03;68.53;99314.59;5009838;28;20874;-45
2022/03/30 08:59:37;;;;;;;35.50;10.35;;;;;;;7.06;68.35;99319.75;5015446;28;20057;-43
2022/03/30 09:02:05;;;;;;;30.33;10.35;;;;;;;7.09;67.50;99316.31;5011129;28;20061;-42
2022/03/30 09:04:32;;;;;;;31.58;9.45;;;;;;;7.15;68.72;99313.72;5031096;28;20053;-42
2022/03/30 09:06:59;;;;;;;31.42;10.40;;;;;;;7.23;68.38;99316.31;5017576;28;20466;-42
2022/03/30 09:09:30;;;;;;;35.28;10.73;;;;;;;7.25;67.88;99315.44;5019126;28;20057;-42
2022/03/30 09:11:59;;;;;;;32.42;11.02;;;;;;;7.27;67.47;99310.28;5018908;28;20065;-42
2022/03/30 09:14:29;;;;;;;40.83;11.98;;;;;;;7.35;68.21;99315.41;5018147;28;20077;-45
2022/03/30 09:17:00;;;;;;;38.15;11.00;;;;;;;7.39;68.31;99307.69;5019511;28;20053;-46
2022/03/30 09:19:30;;;;;;;37.25;11.18;;;;;;;7.45;67.86;99310.25;5021839;28;20454;-45
2022/03/30 09:21:58;;;;;;;37.67;11.52;;;;;;;7.53;68.77;99319.72;5021063;28;20417;-43
2022/03/30 09:24:29;;;;;;;34.97;11.38;;;;;;;7.55;68.05;99310.22;5018205;28;20041;-44
2022/03/30 09:26:57;;;;;;;39.45;10.25;;;;;;;7.58;68.29;99311.09;5018314;28;20081;-44
2022/03/30 09:29:30;;;;;;;33.05;10.85;;;;;;;7.59;66.97;99314.53;5014615;28;20126;-45
2022/03/30 09:32:17;;;;;;;35.75;10.25;;;;;;;7.61;67.44;99311.94;5017893;28;20073;-45
2022/03/30 09:34:51;;;;;;;39.58;11.57;;;;;;;7.64;68.00;99312.81;5015564;28;20095;-44
2022/03/30 09:37:18;;;;;;;29.67;10.68;;;;;;;7.70;66.98;99311.94;5008919;28;20099;-43
2022/03/30 09:39:46;;;;;;;37.15;10.27;;;;;;;7.75;67.38;99311.91;5016207;28;20067;-45
2022/03/30 09:42:14;;;;;;;33.17;10.38;;;;;;;7.75;67.37;99309.31;5013055;28;20050;-44
2022/03/30 09:44:48;;;;;;;32.35;9.98;;;;;;;7.77;67.81;99313.59;5016562;28;20054;-43
2022/03/30 09:47:15;;;;;;;37.10;10.38;;;;;;;7.77;66.79;99308.44;5012813;28;20049;-44
2022/03/30 09:49:45;;;;;;;35.03;10.10;;;;;;;7.80;67.81;99307.59;5018533;28;20061;-50
2022/03/30 09:52:19;;;;;;;39.20;11.85;;;;;;;7.84;66.32;99305.00;5017471;28;20633;-46
2022/03/30 09:57:27;;;;;;;32.20;10.88;;;;;;;7.89;67.32;99301.53;5014311;27;20401;-41
2022/03/30 10:00:03;;;;;;;42.90;10.77;;;;;;;7.91;66.89;99295.50;4977012;28;20097;-43
2022/03/30 10:02:48;;;;;;;32.97;10.32;;;;;;;7.92;67.47;99307.56;4977614;28;20050;-45
2022/03/30 10:05:18;;;;;;;33.15;10.43;;;;;;;7.91;67.09;99299.81;4978992;28;20076;-44
2022/03/30 10:07:45;;;;;;;34.90;10.20;;;;;;;7.91;66.82;99300.66;4963903;28;20051;-42
2022/03/30 10:10:14;;;;;;;35.80;11.43;;;;;;;7.91;67.33;99294.66;4982360;28;20101;-42
2022/03/30 10:12:42;;;;;;;32.63;9.98;;;;;;;7.87;66.70;99298.97;4980626;28;20125;-47
2022/03/30 10:15:10;;;;;;;35.03;11.35;;;;;;;7.82;67.92;99301.56;4974777;28;20054;-44
2022/03/30 10:17:38;;;;;;;31.10;10.60;;;;;;;7.80;66.85;99297.28;4977920;28;20054;-44
2022/03/30 10:20:07;;;;;;;36.15;10.60;;;;;;;7.79;67.13;99300.72;4970769;28;20058;-43
2022/03/30 10:28:28;;;;;;;31.45;11.00;;;;;;;7.70;67.15;99296.47;5025280;28;20417;-45
2022/03/30 10:30:57;;;;;;;36.63;11.75;;;;;;;7.72;67.77;99294.72;5004101;28;20929;-46
2022/03/30 10:36:29;;;;;;;31.92;9.80;;;;;;;7.70;67.52;99296.47;5026665;28;20414;-43
2022/03/30 10:42:07;;;;;;;30.77;8.93;;;;;;;7.74;67.65;99287.88;5029376;27;20405;-43
2022/03/30 11:03:14;;;;;;;34.13;11.10;;;;;;;7.86;67.48;99271.47;5027678;27;20395;-43
2022/03/30 11:05:58;;;;;;;34.15;10.35;;;;;;;7.91;67.87;99263.72;4998302;28;20046;-43
2022/03/30 16:30:57;;;;;;;1.38;0.32;;;;;;;4.53;69.54;99209.88;5038684;28;20401;-48
2022/03/30 16:33:24;;;;;;;0.50;0.35;;;;;;;4.53;69.63;99215.00;4991864;28;20054;-45
2022/03/30 16:35:50;;;;;;;0.52;0.25;;;;;;;4.42;69.50;99205.50;4997968;28;20058;-42
2022/03/30 16:38:17;;;;;;;0.20;0.20;;;;;;;4.34;69.48;99199.47;4994705;28;20054;-44
2022/03/30 16:40:44;;;;;;;0.47;0.38;;;;;;;4.30;69.58;99206.28;4992784;28;20077;-44
2022/03/30 16:43:11;;;;;;;0.38;0.30;;;;;;;4.23;69.65;99207.06;4995518;28;20066;-43
2022/03/30 16:45:40;;;;;;;0.40;0.28;;;;;;;4.19;69.78;99200.19;4998965;28;20042;-45
2022/03/30 16:48:07;;;;;;;0.30;0.30;;;;;;;4.12;69.89;99194.13;4992808;28;20046;-44
2022/03/30 16:50:36;;;;;;;0.40;0.40;;;;;;;4.06;69.21;99200.03;4996868;28;20069;-45
2022/03/30 16:53:04;;;;;;;0.30;0.25;;;;;;;3.97;69.73;99199.97;5018670;28;20119;-41
2022/03/30 16:55:31;;;;;;;0.30;0.30;;;;;;;3.97;70.37;99205.09;4992511;28;20085;-45
2022/03/30 16:57:58;;;;;;;0.30;0.22;;;;;;;3.94;69.76;99205.91;4995887;28;20054;-44
2022/03/30 17:00:27;;;;;;;2.08;0.38;;;;;;;3.96;70.00;99205.94;4999093;28;20065;-43
2022/03/30 17:02:55;;;;;;;0.60;0.43;;;;;;;3.94;69.49;99210.19;4992278;28;20057;-46
2022/03/30 17:05:22;;;;;;;0.30;0.30;;;;;;;3.93;69.44;99198.22;4993055;28;20100;-43
2022/03/30 17:09:57;;;;;;;0.30;0.28;;;;;;;3.93;69.78;99204.22;4996240;28;20058;-44
2022/03/30 17:10:36;;;;;;;1.10;0.40;;;;;;;3.91;69.41;99205.00;4997433;28;20049;-45
2022/03/30 17:13:04;;;;;;;0.75;0.28;;;;;;;3.93;69.21;99205.91;4998119;28;20144;-43
2022/03/30 17:15:31;;;;;;;0.52;0.52;;;;;;;3.93;70.07;99208.47;5009009;28;20053;-44
2022/03/30 17:17:57;;;;;;;1.77;0.10;;;;;;;3.93;69.30;99211.03;5011670;28;20046;-45
2022/03/30 17:20:24;;;;;;;0.38;0.38;;;;;;;3.94;69.17;99205.06;5015446;28;20056;-42
2022/03/30 17:22:51;;;;;;;0.30;0.30;;;;;;;3.94;69.42;99210.19;5017301;28;20061;-42
2022/03/30 17:25:22;;;;;;;0.25;0.20;;;;;;;3.93;69.25;99200.78;5013917;28;20042;-44
2022/03/30 17:27:50;;;;;;;0.47;0.43;;;;;;;3.89;69.23;99211.84;5017657;28;20046;-46
2022/03/30 17:30:23;;;;;;;0.28;0.20;;;;;;;3.80;69.04;99223.72;5013747;28;20397;-42
2022/03/30 17:32:51;;;;;;;0.38;0.30;;;;;;;3.76;70.27;99216.84;5013604;28;20111;-43
2022/03/30 17:35:19;;;;;;;2.30;0.30;;;;;;;3.78;69.71;99220.25;5015494;28;20085;-45